SAS3W EVRA-EFHK
Flight info
| Callsign | SAS3W |
|---|---|
| Flight time | 0h 39m |
| Altitude | 31000 |
| Route | SOKVA DCT ANAMA DCT KEMET DCT KEXLE DCT BEKNA DCT INTOR |
| Aircraft | A20N/M-SDE2E3FGHIRWXY/LB1 |
Departure
| Time | 2026-05-05 20:07 |
|---|---|
| Airport | Riga International Airport (EVRA) |
Arrival
| Time | 2026-05-05 20:46 |
|---|---|
| Airport | Helsinki Vantaa Airport (EFHK) |
| Time | Latitude | Longitude | Altitude | Speed | Heading |
|---|---|---|---|---|---|
| 2026-05-05 19:25 | 56.92293 | 23.97676 | 44 ft | 0 kts | 186° |
| 2026-05-05 19:56 | 56.92296 | 23.97677 | 43 ft | 1 kts | 186° |
| 2026-05-05 19:57 | 56.92304 | 23.97678 | 42 ft | 1 kts | 186° |
| 2026-05-05 19:57 | 56.92312 | 23.97679 | 43 ft | 1 kts | 186° |
| 2026-05-05 19:57 | 56.92322 | 23.97681 | 42 ft | 1 kts | 187° |
| 2026-05-05 19:57 | 56.92330 | 23.97683 | 41 ft | 1 kts | 203° |
| 2026-05-05 19:58 | 56.92334 | 23.97687 | 41 ft | 1 kts | 213° |
| 2026-05-05 19:58 | 56.92341 | 23.97695 | 41 ft | 1 kts | 229° |
| 2026-05-05 19:58 | 56.92346 | 23.97706 | 40 ft | 1 kts | 251° |
| 2026-05-05 19:58 | 56.92348 | 23.97719 | 39 ft | 0 kts | 274° |
| 2026-05-05 20:03 | 56.92349 | 23.97693 | 44 ft | 9 kts | 274° |
| 2026-05-05 20:03 | 56.92356 | 23.97546 | 44 ft | 11 kts | 269° |
| 2026-05-05 20:03 | 56.92298 | 23.97488 | 44 ft | 15 kts | 181° |
| 2026-05-05 20:03 | 56.92141 | 23.97461 | 44 ft | 34 kts | 185° |
| 2026-05-05 20:04 | 56.91859 | 23.97426 | 44 ft | 46 kts | 188° |
| 2026-05-05 20:04 | 56.91549 | 23.97376 | 44 ft | 40 kts | 186° |
| 2026-05-05 20:04 | 56.91389 | 23.97349 | 44 ft | 10 kts | 188° |
| 2026-05-05 20:04 | 56.91323 | 23.97265 | 44 ft | 11 kts | 230° |
| 2026-05-05 20:05 | 56.91277 | 23.97155 | 44 ft | 12 kts | 239° |
| 2026-05-05 20:05 | 56.91279 | 23.96998 | 43 ft | 14 kts | 299° |
| 2026-05-05 20:05 | 56.91351 | 23.96946 | 46 ft | 1 kts | 8° |
| 2026-05-05 20:06 | 56.91458 | 23.96967 | 44 ft | 55 kts | 5° |
| 2026-05-05 20:06 | 56.92145 | 23.97078 | 45 ft | 137 kts | 5° |
| 2026-05-05 20:06 | 56.93240 | 23.97276 | 486 ft | 165 kts | 5° |
| 2026-05-05 20:07 | 56.94408 | 23.97518 | 1408 ft | 173 kts | 5° |
| 2026-05-05 20:07 | 56.95613 | 23.97791 | 2390 ft | 180 kts | 5° |
| 2026-05-05 20:07 | 56.96875 | 23.98106 | 3419 ft | 186 kts | 4° |
| 2026-05-05 20:07 | 56.98302 | 23.98329 | 3865 ft | 228 kts | 0° |
| 2026-05-05 20:08 | 57.00030 | 23.98495 | 4368 ft | 264 kts | 0° |
| 2026-05-05 20:08 | 57.01864 | 23.98896 | 5701 ft | 263 kts | 6° |
| 2026-05-05 20:08 | 57.03637 | 23.99513 | 7194 ft | 255 kts | 6° |
| 2026-05-05 20:08 | 57.05335 | 24.00122 | 8693 ft | 242 kts | 5° |
| 2026-05-05 20:09 | 57.06952 | 24.00701 | 10005 ft | 233 kts | 4° |
| 2026-05-05 20:09 | 57.08594 | 24.01263 | 10706 ft | 250 kts | 3° |
| 2026-05-05 20:09 | 57.10393 | 24.01856 | 11232 ft | 273 kts | 3° |
| 2026-05-05 20:09 | 57.12348 | 24.02508 | 11752 ft | 297 kts | 4° |
| 2026-05-05 20:10 | 57.14463 | 24.03230 | 12215 ft | 321 kts | 4° |
| 2026-05-05 20:10 | 57.16743 | 24.04019 | 12632 ft | 346 kts | 5° |
| 2026-05-05 20:10 | 57.19191 | 24.04874 | 13102 ft | 366 kts | 5° |
| 2026-05-05 20:10 | 57.21713 | 24.05767 | 13966 ft | 371 kts | 5° |
| 2026-05-05 20:11 | 57.24264 | 24.06672 | 14794 ft | 377 kts | 5° |
| 2026-05-05 20:11 | 57.26863 | 24.07585 | 15592 ft | 382 kts | 5° |
| 2026-05-05 20:11 | 57.29501 | 24.08508 | 16386 ft | 390 kts | 4° |
| 2026-05-05 20:11 | 57.32150 | 24.09431 | 17162 ft | 395 kts | 4° |
| 2026-05-05 20:12 | 57.34907 | 24.10393 | 17951 ft | 401 kts | 4° |
| 2026-05-05 20:12 | 57.37668 | 24.11355 | 18660 ft | 406 kts | 4° |
| 2026-05-05 20:12 | 57.40454 | 24.12328 | 19370 ft | 410 kts | 4° |
| 2026-05-05 20:12 | 57.43272 | 24.13316 | 20077 ft | 414 kts | 4° |
| 2026-05-05 20:13 | 57.46088 | 24.14301 | 20761 ft | 419 kts | 4° |
| 2026-05-05 20:13 | 57.48964 | 24.15304 | 21445 ft | 423 kts | 4° |
| 2026-05-05 20:13 | 57.51878 | 24.16323 | 22120 ft | 428 kts | 4° |
| 2026-05-05 20:13 | 57.54807 | 24.17354 | 22785 ft | 432 kts | 4° |
| 2026-05-05 20:14 | 57.57790 | 24.18410 | 23469 ft | 437 kts | 3° |
| 2026-05-05 20:14 | 57.60795 | 24.19477 | 24048 ft | 440 kts | 4° |
| 2026-05-05 20:14 | 57.63822 | 24.20555 | 24635 ft | 443 kts | 4° |
| 2026-05-05 20:14 | 57.66863 | 24.21645 | 25191 ft | 446 kts | 4° |
| 2026-05-05 20:15 | 57.69924 | 24.22746 | 25735 ft | 450 kts | 4° |
| 2026-05-05 20:15 | 57.73005 | 24.23853 | 26269 ft | 453 kts | 4° |
| 2026-05-05 20:15 | 57.76105 | 24.24966 | 26787 ft | 456 kts | 4° |
| 2026-05-05 20:15 | 57.79242 | 24.26091 | 27291 ft | 459 kts | 4° |
| 2026-05-05 20:16 | 57.82394 | 24.27223 | 27792 ft | 462 kts | 4° |
| 2026-05-05 20:16 | 57.85558 | 24.28360 | 28299 ft | 465 kts | 4° |
| 2026-05-05 20:16 | 57.88706 | 24.29491 | 28754 ft | 468 kts | 4° |
| 2026-05-05 20:16 | 57.91913 | 24.30637 | 29205 ft | 470 kts | 4° |
| 2026-05-05 20:17 | 57.95145 | 24.31747 | 29632 ft | 473 kts | 4° |
| 2026-05-05 20:17 | 57.98389 | 24.32845 | 30049 ft | 475 kts | 4° |
| 2026-05-05 20:17 | 58.01658 | 24.33954 | 30440 ft | 478 kts | 4° |
| 2026-05-05 20:17 | 58.04934 | 24.35071 | 30768 ft | 482 kts | 4° |
| 2026-05-05 20:18 | 58.08262 | 24.36209 | 30883 ft | 491 kts | 4° |
| 2026-05-05 20:18 | 58.15111 | 24.38565 | 30895 ft | 508 kts | 4° |
| 2026-05-05 20:19 | 58.22012 | 24.40964 | 30886 ft | 515 kts | 4° |
| 2026-05-05 20:19 | 58.29096 | 24.43438 | 30884 ft | 519 kts | 4° |
| 2026-05-05 20:20 | 58.36118 | 24.45911 | 30878 ft | 494 kts | 4° |
| 2026-05-05 20:20 | 58.39428 | 24.47090 | 30879 ft | 474 kts | 4° |
| 2026-05-05 20:20 | 58.42666 | 24.48226 | 30887 ft | 478 kts | 3° |
| 2026-05-05 20:21 | 58.49249 | 24.50514 | 30882 ft | 481 kts | 3° |
| 2026-05-05 20:21 | 58.55791 | 24.52824 | 30885 ft | 481 kts | 4° |
| 2026-05-05 20:22 | 58.62379 | 24.55164 | 30884 ft | 481 kts | 4° |
| 2026-05-05 20:22 | 58.68984 | 24.57521 | 30915 ft | 483 kts | 3° |
| 2026-05-05 20:23 | 58.75606 | 24.59894 | 30884 ft | 484 kts | 3° |
| 2026-05-05 20:23 | 58.82179 | 24.62253 | 30883 ft | 483 kts | 3° |
| 2026-05-05 20:24 | 58.88792 | 24.64634 | 30775 ft | 484 kts | 3° |
| 2026-05-05 20:24 | 58.92101 | 24.65830 | 30508 ft | 483 kts | 3° |
| 2026-05-05 20:24 | 58.95407 | 24.67027 | 29871 ft | 483 kts | 3° |
| 2026-05-05 20:24 | 58.98705 | 24.68225 | 29178 ft | 481 kts | 2° |
| 2026-05-05 20:25 | 59.01962 | 24.69418 | 28608 ft | 473 kts | 2° |
| 2026-05-05 20:25 | 59.05175 | 24.70594 | 27979 ft | 467 kts | 2° |
| 2026-05-05 20:25 | 59.08357 | 24.71759 | 27379 ft | 461 kts | 2° |
| 2026-05-05 20:25 | 59.11489 | 24.72905 | 26776 ft | 455 kts | 2° |
| 2026-05-05 20:26 | 59.14588 | 24.74039 | 26190 ft | 450 kts | 2° |
| 2026-05-05 20:26 | 59.17643 | 24.75159 | 25609 ft | 445 kts | 2° |
| 2026-05-05 20:26 | 59.20678 | 24.76273 | 25020 ft | 440 kts | 2° |
| 2026-05-05 20:26 | 59.23679 | 24.77377 | 24450 ft | 437 kts | 2° |
| 2026-05-05 20:27 | 59.26608 | 24.78456 | 23853 ft | 434 kts | 2° |
| 2026-05-05 20:27 | 59.29588 | 24.79556 | 23259 ft | 430 kts | 2° |
| 2026-05-05 20:27 | 59.32503 | 24.80636 | 22683 ft | 425 kts | 2° |
| 2026-05-05 20:27 | 59.35393 | 24.81710 | 22117 ft | 419 kts | 2° |
| 2026-05-05 20:28 | 59.38244 | 24.82771 | 21557 ft | 414 kts | 2° |
| 2026-05-05 20:28 | 59.41058 | 24.84019 | 21035 ft | 415 kts | 8° |
| 2026-05-05 20:28 | 59.43736 | 24.85987 | 20509 ft | 418 kts | 15° |
| 2026-05-05 20:28 | 59.46404 | 24.88220 | 19887 ft | 415 kts | 15° |
| 2026-05-05 20:29 | 59.49061 | 24.90416 | 19349 ft | 412 kts | 15° |
| 2026-05-05 20:29 | 59.51696 | 24.92591 | 18794 ft | 409 kts | 15° |
| 2026-05-05 20:29 | 59.54319 | 24.94763 | 18231 ft | 408 kts | 14° |
| 2026-05-05 20:29 | 59.56922 | 24.96925 | 17654 ft | 405 kts | 15° |
| 2026-05-05 20:30 | 59.59513 | 24.99086 | 17102 ft | 401 kts | 15° |
| 2026-05-05 20:30 | 59.62071 | 25.01225 | 16510 ft | 398 kts | 15° |
| 2026-05-05 20:30 | 59.64614 | 25.03354 | 15973 ft | 395 kts | 15° |
| 2026-05-05 20:30 | 59.67133 | 25.05467 | 15429 ft | 392 kts | 15° |
| 2026-05-05 20:31 | 59.69634 | 25.07567 | 14892 ft | 389 kts | 15° |
| 2026-05-05 20:31 | 59.72119 | 25.09655 | 14352 ft | 387 kts | 15° |
| 2026-05-05 20:31 | 59.74596 | 25.11740 | 13823 ft | 385 kts | 15° |
| 2026-05-05 20:31 | 59.77052 | 25.13811 | 13270 ft | 382 kts | 16° |
| 2026-05-05 20:32 | 59.79477 | 25.15859 | 12759 ft | 377 kts | 16° |
| 2026-05-05 20:32 | 59.81879 | 25.17893 | 12254 ft | 373 kts | 16° |
| 2026-05-05 20:32 | 59.84308 | 25.19403 | 11732 ft | 361 kts | 2° |
| 2026-05-05 20:32 | 59.86777 | 25.20239 | 11189 ft | 358 kts | 2° |
| 2026-05-05 20:33 | 59.89220 | 25.21049 | 10660 ft | 354 kts | 3° |
| 2026-05-05 20:33 | 59.91641 | 25.21851 | 10136 ft | 350 kts | 3° |
| 2026-05-05 20:33 | 59.94033 | 25.22649 | 9621 ft | 346 kts | 4° |
| 2026-05-05 20:33 | 59.96396 | 25.23428 | 9037 ft | 341 kts | 5° |
| 2026-05-05 20:34 | 59.98712 | 25.24207 | 8466 ft | 336 kts | 6° |
| 2026-05-05 20:34 | 60.01002 | 25.24986 | 7905 ft | 331 kts | 6° |
| 2026-05-05 20:34 | 60.03246 | 25.25751 | 7358 ft | 326 kts | 6° |
| 2026-05-05 20:34 | 60.05445 | 25.26502 | 6820 ft | 322 kts | 6° |
| 2026-05-05 20:35 | 60.07642 | 25.27253 | 6283 ft | 318 kts | 6° |
| 2026-05-05 20:35 | 60.09802 | 25.27992 | 5924 ft | 308 kts | 6° |
| 2026-05-05 20:35 | 60.11859 | 25.28702 | 5839 ft | 291 kts | 6° |
| 2026-05-05 20:35 | 60.13784 | 25.29367 | 5829 ft | 272 kts | 6° |
| 2026-05-05 20:36 | 60.15608 | 25.29995 | 5833 ft | 265 kts | 6° |
| 2026-05-05 20:36 | 60.17438 | 25.30616 | 5829 ft | 266 kts | 6° |
| 2026-05-05 20:36 | 60.19261 | 25.31238 | 5829 ft | 265 kts | 6° |
| 2026-05-05 20:36 | 60.21081 | 25.31863 | 5829 ft | 265 kts | 6° |
| 2026-05-05 20:37 | 60.22900 | 25.32489 | 5820 ft | 266 kts | 6° |
| 2026-05-05 20:37 | 60.24105 | 25.32905 | 5821 ft | 265 kts | 6° |
| 2026-05-05 20:37 | 60.26518 | 25.33740 | 5819 ft | 266 kts | 6° |
| 2026-05-05 20:37 | 60.28338 | 25.34369 | 5771 ft | 266 kts | 6° |
| 2026-05-05 20:38 | 60.30162 | 25.35003 | 5577 ft | 264 kts | 6° |
| 2026-05-05 20:38 | 60.31965 | 25.35630 | 5260 ft | 261 kts | 6° |
| 2026-05-05 20:38 | 60.33731 | 25.36244 | 5051 ft | 253 kts | 6° |
| 2026-05-05 20:38 | 60.35418 | 25.36835 | 4948 ft | 241 kts | 6° |
| 2026-05-05 20:39 | 60.37049 | 25.37407 | 4781 ft | 233 kts | 6° |
| 2026-05-05 20:39 | 60.38635 | 25.37958 | 4573 ft | 227 kts | 5° |
| 2026-05-05 20:39 | 60.40154 | 25.37801 | 4455 ft | 222 kts | 338° |
| 2026-05-05 20:39 | 60.41430 | 25.36120 | 4198 ft | 221 kts | 316° |
| 2026-05-05 20:40 | 60.42565 | 25.34020 | 3911 ft | 220 kts | 316° |
| 2026-05-05 20:40 | 60.43688 | 25.31930 | 3611 ft | 218 kts | 316° |
| 2026-05-05 20:40 | 60.44424 | 25.30540 | 3423 ft | 217 kts | 311° |
| 2026-05-05 20:40 | 60.45141 | 25.27927 | 3151 ft | 214 kts | 283° |
| 2026-05-05 20:41 | 60.45007 | 25.24992 | 3001 ft | 212 kts | 248° |
| 2026-05-05 20:41 | 60.44205 | 25.22544 | 2906 ft | 207 kts | 234° |
| 2026-05-05 20:41 | 60.43261 | 25.20419 | 2803 ft | 198 kts | 231° |
| 2026-05-05 20:41 | 60.42353 | 25.18421 | 2686 ft | 188 kts | 232° |
| 2026-05-05 20:42 | 60.41497 | 25.16528 | 2624 ft | 174 kts | 232° |
| 2026-05-05 20:42 | 60.40710 | 25.14782 | 2425 ft | 166 kts | 233° |
| 2026-05-05 20:42 | 60.39936 | 25.13069 | 2215 ft | 160 kts | 233° |
| 2026-05-05 20:42 | 60.39205 | 25.11452 | 2005 ft | 155 kts | 234° |
| 2026-05-05 20:43 | 60.38492 | 25.09879 | 1796 ft | 148 kts | 234° |
| 2026-05-05 20:43 | 60.37827 | 25.08411 | 1593 ft | 135 kts | 235° |
| 2026-05-05 20:43 | 60.37223 | 25.07080 | 1425 ft | 122 kts | 236° |
| 2026-05-05 20:43 | 60.36655 | 25.05810 | 1257 ft | 122 kts | 235° |
| 2026-05-05 20:44 | 60.36086 | 25.04566 | 1063 ft | 119 kts | 234° |
| 2026-05-05 20:44 | 60.35504 | 25.03342 | 854 ft | 121 kts | 231° |
| 2026-05-05 20:44 | 60.34967 | 25.02122 | 722 ft | 114 kts | 233° |
| 2026-05-05 20:44 | 60.34426 | 25.00926 | 598 ft | 115 kts | 232° |
| 2026-05-05 20:45 | 60.33338 | 24.98513 | 314 ft | 118 kts | 230° |
| 2026-05-05 20:45 | 60.32804 | 24.97329 | 193 ft | 114 kts | 231° |
| 2026-05-05 20:45 | 60.32317 | 24.96247 | 177 ft | 80 kts | 227° |
| 2026-05-05 20:46 | 60.32072 | 24.95710 | 174 ft | 31 kts | 227° |
| 2026-05-05 20:46 | 60.31933 | 24.95421 | 174 ft | 26 kts | 218° |
| 2026-05-05 20:46 | 60.31788 | 24.95259 | 172 ft | 23 kts | 196° |
| 2026-05-05 20:46 | 60.31674 | 24.95191 | 170 ft | 13 kts | 191° |
| 2026-05-05 20:47 | 60.31638 | 24.95227 | 169 ft | 3 kts | 131° |
| 2026-05-05 20:47 | 60.31637 | 24.95315 | 168 ft | 10 kts | 70° |
| 2026-05-05 20:47 | 60.31691 | 24.95434 | 169 ft | 14 kts | 45° |
| 2026-05-05 20:47 | 60.31764 | 24.95595 | 169 ft | 18 kts | 49° |
| 2026-05-05 20:48 | 60.31855 | 24.95797 | 169 ft | 21 kts | 47° |
| 2026-05-05 20:48 | 60.31928 | 24.95974 | 168 ft | 11 kts | 70° |
| 2026-05-05 20:48 | 60.31887 | 24.96108 | 165 ft | 16 kts | 135° |
| 2026-05-05 20:48 | 60.31858 | 24.96304 | 163 ft | 11 kts | 74° |
| 2026-05-05 20:49 | 60.31910 | 24.96438 | 163 ft | 15 kts | 47° |
| 2026-05-05 20:49 | 60.31962 | 24.96553 | 163 ft | 8 kts | 48° |
| 2026-05-05 20:49 | 60.31973 | 24.96577 | 163 ft | 4 kts | 49° |
| 2026-05-05 20:49 | 60.31974 | 24.96634 | 163 ft | 5 kts | 131° |
| 2026-05-05 20:50 | 60.31950 | 24.96673 | 163 ft | 0 kts | 137° |
| 2026-05-05 20:50 | 60.31943 | 24.96686 | 163 ft | 1 kts | 137° |
| 2026-05-05 20:50 | 60.31942 | 24.96687 | 163 ft | 0 kts | 137° |